Time;durP1;ratioP1;P1;durP2;ratioP2;P2;SDS_P1;SDS_P2;PMS_P1;PMS_P2;Temp;Humidity;BMP_temperature;BMP_pressure;BME280_temperature;BME280_humidity;BME280_pressure;Samples;Min_cycle;Max_cycle;Signal;HPM_P1;HPM_P2
2024/03/29 00:02:06;;;;;;;;;;;2.20;99.90;;;;;;5031804;28;19917;-60
2024/03/29 00:04:31;;;;;;;;;;;2.20;99.90;;;;;;5048800;28;19960;-61
2024/03/29 00:06:57;;;;;;;;;;;2.20;99.90;;;;;;5041619;28;20399;-61
2024/03/29 00:09:22;;;;;;;;;;;2.10;99.90;;;;;;5032006;28;19918;-60
2024/03/29 00:11:48;;;;;;;;;;;2.20;99.90;;;;;;5033586;28;19914;-60
2024/03/29 00:14:13;;;;;;;;;;;2.20;99.90;;;;;;5033207;28;19909;-59
2024/03/29 00:16:38;;;;;;;;;;;2.10;99.90;;;;;;5033054;28;19980;-58
2024/03/29 00:19:04;;;;;;;;;;;2.10;99.90;;;;;;5033060;28;19917;-60
2024/03/29 00:21:30;;;;;;;;;;;2.00;99.90;;;;;;5048920;28;20198;-61
2024/03/29 00:23:55;;;;;;;;;;;1.90;99.90;;;;;;5033245;28;19921;-61
2024/03/29 00:26:21;;;;;;;;;;;1.90;99.90;;;;;;5032907;28;20289;-61
2024/03/29 00:28:46;;;;;;;;;;;1.90;99.90;;;;;;5032454;28;19913;-61
2024/03/29 00:31:12;;;;;;;;;;;1.90;99.90;;;;;;5042775;28;19917;-58
2024/03/29 00:33:37;;;;;;;;;;;1.80;99.90;;;;;;5043052;28;20000;-61
2024/03/29 00:36:03;;;;;;;;;;;1.90;99.90;;;;;;5035489;28;19913;-61
2024/03/29 00:38:29;;;;;;;;;;;1.80;99.90;;;;;;5032846;28;20381;-61
2024/03/29 00:40:54;;;;;;;;;;;1.90;99.90;;;;;;5032297;28;19917;-61
2024/03/29 00:43:20;;;;;;;;;;;1.90;99.90;;;;;;5032554;28;20336;-61
2024/03/29 00:45:45;;;;;;;;;;;1.90;99.90;;;;;;5032542;28;19944;-60
2024/03/29 00:48:10;;;;;;;;;;;1.90;99.90;;;;;;5032362;28;19968;-59
2024/03/29 00:50:37;;;;;;;;;;;1.90;99.90;;;;;;5032236;28;19913;-57
2024/03/29 00:53:04;;;;;;;;;;;1.90;99.90;;;;;;5032422;28;20452;-62
2024/03/29 00:55:29;;;;;;;;;;;1.80;99.90;;;;;;5032616;28;20377;-62
2024/03/29 00:57:55;;;;;;;;;;;1.90;99.90;;;;;;5032272;28;19959;-58
2024/03/29 01:00:21;;;;;;;;;;;1.90;99.90;;;;;;5031823;28;19917;-62
2024/03/29 01:02:46;;;;;;;;;;;1.90;99.90;;;;;;5040518;28;20120;-62
2024/03/29 01:05:11;;;;;;;;;;;2.00;99.90;;;;;;5040414;28;19913;-61
2024/03/29 01:07:39;;;;;;;;;;;2.00;99.90;;;;;;5040561;28;19920;-61
2024/03/29 01:10:05;;;;;;;;;;;2.00;99.90;;;;;;5040021;28;19917;-58
2024/03/29 01:12:31;;;;;;;;;;;2.10;99.90;;;;;;5032033;28;20297;-61
2024/03/29 01:14:56;;;;;;;;;;;2.10;99.90;;;;;;5031309;28;19920;-60
2024/03/29 01:17:22;;;;;;;;;;;2.10;99.90;;;;;;5034551;28;20346;-60
2024/03/29 01:19:47;;;;;;;;;;;2.20;99.90;;;;;;5036536;28;19921;-59
2024/03/29 01:22:13;;;;;;;;;;;2.20;99.90;;;;;;5040247;28;20423;-59
2024/03/29 01:24:38;;;;;;;;;;;2.20;99.90;;;;;;5032175;28;19914;-58
2024/03/29 01:27:06;;;;;;;;;;;2.20;99.90;;;;;;5032079;28;19917;-61
2024/03/29 01:29:32;;;;;;;;;;;2.30;99.90;;;;;;5035836;28;20380;-58
2024/03/29 01:31:57;;;;;;;;;;;2.30;99.90;;;;;;5035711;28;19914;-60
2024/03/29 01:34:23;;;;;;;;;;;2.30;99.90;;;;;;5031582;28;20293;-59
2024/03/29 01:36:49;;;;;;;;;;;2.30;99.90;;;;;;5039948;28;20373;-59
2024/03/29 01:39:17;;;;;;;;;;;2.40;99.90;;;;;;5041436;28;19917;-59
2024/03/29 01:41:42;;;;;;;;;;;2.40;99.90;;;;;;5045932;28;19914;-59
2024/03/29 01:44:08;;;;;;;;;;;2.40;99.90;;;;;;5031551;28;19913;-58
2024/03/29 01:46:35;;;;;;;;;;;2.50;99.90;;;;;;5031218;28;19944;-59
2024/03/29 01:49:01;;;;;;;;;;;2.50;99.90;;;;;;5031276;28;19921;-60
2024/03/29 01:51:27;;;;;;;;;;;2.50;99.90;;;;;;5047756;28;19910;-60
2024/03/29 01:53:53;;;;;;;;;;;2.50;99.90;;;;;;5013779;28;19919;-60
2024/03/29 01:56:20;;;;;;;;;;;2.60;99.90;;;;;;5031078;28;19963;-59
2024/03/29 01:58:47;;;;;;;;;;;2.60;99.90;;;;;;5039054;28;19916;-60
2024/03/29 02:01:13;;;;;;;;;;;2.60;99.90;;;;;;5031059;28;20355;-60
2024/03/29 02:03:39;;;;;;;;;;;2.60;99.90;;;;;;5036459;28;19913;-60
2024/03/29 02:06:05;;;;;;;;;;;2.60;99.90;;;;;;5033753;28;20301;-60
2024/03/29 02:08:33;;;;;;;;;;;2.70;99.90;;;;;;5030532;28;19963;-60
2024/03/29 02:10:59;;;;;;;;;;;2.80;99.90;;;;;;5031225;28;19909;-61
2024/03/29 02:13:24;;;;;;;;;;;2.70;99.90;;;;;;5047462;28;19917;-61
2024/03/29 02:15:50;;;;;;;;;;;2.80;99.90;;;;;;5039158;28;19929;-60
2024/03/29 02:18:15;;;;;;;;;;;2.80;99.90;;;;;;5030991;28;19917;-59
2024/03/29 02:20:41;;;;;;;;;;;2.80;99.90;;;;;;5039002;28;20349;-62
2024/03/29 02:23:08;;;;;;;;;;;2.90;99.90;;;;;;5031521;28;19917;-61
2024/03/29 02:25:34;;;;;;;;;;;2.90;99.90;;;;;;5045831;28;19913;-59
2024/03/29 02:28:01;;;;;;;;;;;2.90;99.90;;;;;;5038798;28;19913;-59
2024/03/29 02:30:27;;;;;;;;;;;3.00;99.90;;;;;;5038296;28;20281;-59
2024/03/29 02:32:52;;;;;;;;;;;3.00;99.90;;;;;;5030834;28;20017;-60
2024/03/29 02:35:18;;;;;;;;;;;3.00;99.90;;;;;;5038969;28;19999;-60
2024/03/29 02:37:43;;;;;;;;;;;3.10;99.90;;;;;;5038527;28;19996;-61
2024/03/29 02:40:09;;;;;;;;;;;3.00;99.90;;;;;;5031160;28;19960;-60
2024/03/29 02:42:35;;;;;;;;;;;3.00;99.90;;;;;;5050340;28;19920;-60
2024/03/29 02:45:02;;;;;;;;;;;3.10;99.90;;;;;;5041850;28;19917;-60
2024/03/29 02:47:27;;;;;;;;;;;3.10;99.90;;;;;;5038502;28;19971;-60
2024/03/29 02:49:53;;;;;;;;;;;3.10;99.90;;;;;;5029890;28;19917;-61
2024/03/29 02:52:18;;;;;;;;;;;3.20;99.90;;;;;;5030306;28;19949;-60
2024/03/29 02:54:43;;;;;;;;;;;3.20;99.90;;;;;;5038707;28;19917;-60
2024/03/29 02:57:09;;;;;;;;;;;3.20;99.90;;;;;;5038246;28;19927;-61
2024/03/29 02:59:34;;;;;;;;;;;3.20;99.90;;;;;;5029856;28;20393;-60
2024/03/29 03:02:00;;;;;;;;;;;3.20;99.90;;;;;;5030210;28;19951;-61
2024/03/29 03:04:25;;;;;;;;;;;3.20;99.90;;;;;;5038224;28;19923;-59
2024/03/29 03:06:51;;;;;;;;;;;3.30;99.90;;;;;;5029820;28;19913;-58
2024/03/29 03:12:00;;;;;;;;;;;3.30;99.90;;;;;;5030049;28;19964;-60
2024/03/29 03:14:26;;;;;;;;;;;3.40;99.90;;;;;;5049734;28;19913;-61
2024/03/29 03:16:51;;;;;;;;;;;3.40;99.90;;;;;;5034758;28;19954;-60
2024/03/29 03:19:17;;;;;;;;;;;3.40;99.90;;;;;;5029414;28;19925;-60
2024/03/29 03:21:42;;;;;;;;;;;3.50;99.90;;;;;;5035720;28;20347;-61
2024/03/29 03:24:09;;;;;;;;;;;3.50;99.90;;;;;;5040587;28;19917;-61
2024/03/29 03:26:34;;;;;;;;;;;3.60;99.90;;;;;;5034155;28;20440;-61
2024/03/29 03:29:00;;;;;;;;;;;3.60;99.90;;;;;;5041236;28;20142;-61
2024/03/29 03:31:25;;;;;;;;;;;3.60;99.90;;;;;;5037990;28;19917;-61
2024/03/29 03:33:50;;;;;;;;;;;3.60;99.90;;;;;;5029862;28;20365;-61
2024/03/29 03:36:16;;;;;;;;;;;3.60;99.90;;;;;;5031719;28;19917;-62
2024/03/29 03:38:42;;;;;;;;;;;3.70;99.90;;;;;;5039755;28;20035;-62
2024/03/29 03:41:07;;;;;;;;;;;3.70;99.90;;;;;;5033733;28;19920;-62
2024/03/29 03:43:32;;;;;;;;;;;3.70;99.90;;;;;;5034308;28;19918;-61
2024/03/29 03:46:01;;;;;;;;;;;3.70;99.90;;;;;;5033654;28;20383;-62
2024/03/29 03:48:28;;;;;;;;;;;3.70;99.90;;;;;;5045278;28;19916;-62
2024/03/29 03:50:54;;;;;;;;;;;3.70;99.90;;;;;;5038123;28;20455;-61
2024/03/29 03:53:20;;;;;;;;;;;3.60;99.90;;;;;;5041847;28;19917;-62
2024/03/29 03:55:45;;;;;;;;;;;3.70;99.90;;;;;;5039470;28;20343;-63
2024/03/29 03:58:11;;;;;;;;;;;3.70;99.90;;;;;;5036750;28;19917;-62
2024/03/29 04:00:37;;;;;;;;;;;3.70;99.90;;;;;;5040093;28;19909;-62
2024/03/29 04:03:03;;;;;;;;;;;3.80;99.90;;;;;;5041482;28;20301;-62
2024/03/29 04:05:31;;;;;;;;;;;3.80;99.90;;;;;;5033594;28;19913;-62
2024/03/29 04:07:57;;;;;;;;;;;3.90;99.90;;;;;;5049164;28;19916;-62
2024/03/29 04:10:22;;;;;;;;;;;3.80;99.90;;;;;;5041587;28;20439;-61
2024/03/29 04:12:49;;;;;;;;;;;3.90;99.90;;;;;;5033665;28;19924;-62
2024/03/29 04:15:15;;;;;;;;;;;4.00;99.90;;;;;;5033225;28;19913;-61
2024/03/29 04:17:40;;;;;;;;;;;4.00;99.90;;;;;;5038750;28;19982;-62
2024/03/29 04:20:06;;;;;;;;;;;4.00;99.90;;;;;;5043770;28;19924;-62
2024/03/29 04:22:32;;;;;;;;;;;4.00;99.90;;;;;;5037327;28;20338;-60
2024/03/29 04:24:57;;;;;;;;;;;4.00;99.90;;;;;;5045485;28;20278;-62
2024/03/29 04:27:23;;;;;;;;;;;4.00;99.90;;;;;;5041008;28;19944;-60
2024/03/29 04:29:52;;;;;;;;;;;4.10;99.90;;;;;;5032607;28;20390;-62
2024/03/29 04:32:17;;;;;;;;;;;4.10;99.90;;;;;;5034974;28;19916;-61
2024/03/29 04:34:45;;;;;;;;;;;4.10;99.90;;;;;;5038982;28;19917;-61
2024/03/29 04:37:11;;;;;;;;;;;4.20;99.90;;;;;;5040661;28;19925;-62
2024/03/29 04:39:36;;;;;;;;;;;4.20;99.90;;;;;;5022886;28;19920;-62
2024/03/29 04:42:02;;;;;;;;;;;4.30;99.90;;;;;;5049427;28;20015;-62
2024/03/29 04:44:28;;;;;;;;;;;4.30;99.90;;;;;;5036133;28;19916;-62
2024/03/29 04:46:53;;;;;;;;;;;4.20;99.90;;;;;;5037348;28;20305;-62
2024/03/29 04:49:23;;;;;;;;;;;4.20;99.90;;;;;;5039982;28;20391;-62
2024/03/29 04:51:49;;;;;;;;;;;4.20;99.90;;;;;;5032686;28;20400;-62
2024/03/29 04:54:15;;;;;;;;;;;4.20;99.90;;;;;;5032898;28;19967;-61
2024/03/29 04:56:41;;;;;;;;;;;4.10;99.90;;;;;;5032748;28;19928;-61
2024/03/29 04:59:07;;;;;;;;;;;4.20;99.90;;;;;;5040178;28;19913;-62
2024/03/29 05:01:35;;;;;;;;;;;4.20;99.90;;;;;;5032597;28;20389;-60
2024/03/29 05:04:00;;;;;;;;;;;4.30;99.90;;;;;;5048397;28;20377;-62
2024/03/29 05:06:26;;;;;;;;;;;4.30;99.90;;;;;;5032317;28;19913;-62
2024/03/29 05:08:52;;;;;;;;;;;4.30;99.90;;;;;;5031767;28;19924;-60
2024/03/29 05:11:19;;;;;;;;;;;4.30;99.90;;;;;;5032189;28;19994;-61
2024/03/29 05:13:44;;;;;;;;;;;4.40;99.90;;;;;;5038032;28;19921;-62
2024/03/29 05:16:10;;;;;;;;;;;4.40;99.90;;;;;;5042738;28;19943;-60
2024/03/29 05:18:35;;;;;;;;;;;4.40;99.90;;;;;;5039676;28;19948;-62
2024/03/29 05:21:00;;;;;;;;;;;4.40;99.90;;;;;;5014669;28;19921;-62
2024/03/29 05:23:26;;;;;;;;;;;4.40;99.90;;;;;;5035104;28;19913;-61
2024/03/29 05:25:52;;;;;;;;;;;4.40;99.90;;;;;;5043591;28;19916;-62
2024/03/29 05:28:17;;;;;;;;;;;4.40;99.90;;;;;;5041454;28;20352;-61
2024/03/29 05:30:43;;;;;;;;;;;4.50;99.90;;;;;;5037033;28;19966;-61
2024/03/29 05:33:09;;;;;;;;;;;4.50;99.90;;;;;;5050778;28;19915;-61
2024/03/29 05:35:34;;;;;;;;;;;4.60;99.90;;;;;;5044294;28;20327;-62
2024/03/29 05:38:00;;;;;;;;;;;4.60;99.90;;;;;;5044054;28;19917;-60
2024/03/29 05:40:27;;;;;;;;;;;4.60;99.90;;;;;;5030532;28;19913;-60
2024/03/29 05:42:53;;;;;;;;;;;4.80;99.90;;;;;;5030775;28;20285;-60
2024/03/29 05:45:25;;;;;;;;;;;4.80;99.90;;;;;;5039421;28;19909;-60
2024/03/29 05:47:51;;;;;;;;;;;4.90;99.90;;;;;;5031194;28;19921;-62
2024/03/29 05:50:17;;;;;;;;;;;5.00;99.90;;;;;;5030244;28;19909;-60
2024/03/29 05:52:42;;;;;;;;;;;5.00;99.90;;;;;;5031054;28;19917;-61
2024/03/29 05:55:09;;;;;;;;;;;5.00;99.90;;;;;;5030693;28;20347;-60
2024/03/29 05:57:38;;;;;;;;;;;5.00;99.90;;;;;;5034912;28;20007;-61
2024/03/29 06:00:05;;;;;;;;;;;5.10;99.90;;;;;;5033000;28;19913;-61
2024/03/29 06:02:30;;;;;;;;;;;5.20;99.90;;;;;;5030757;28;20289;-61
2024/03/29 06:04:55;;;;;;;;;;;5.30;99.90;;;;;;5030689;28;19917;-61
2024/03/29 06:07:21;;;;;;;;;;;5.30;99.90;;;;;;5038739;28;19935;-60
2024/03/29 06:09:46;;;;;;;;;;;5.30;99.90;;;;;;5036301;28;19913;-61
2024/03/29 06:12:12;;;;;;;;;;;5.30;99.90;;;;;;5032469;28;19920;-59
2024/03/29 06:17:25;;;;;;;;;;;5.40;99.90;;;;;;5030050;28;20286;-60
2024/03/29 06:19:50;;;;;;;;;;;5.40;99.90;;;;;;5036307;28;19913;-61
2024/03/29 06:22:17;;;;;;;;;;;5.50;99.90;;;;;;5031785;28;19918;-62
2024/03/29 06:24:44;;;;;;;;;;;5.50;99.90;;;;;;5030209;28;19960;-62
2024/03/29 06:27:09;;;;;;;;;;;5.60;99.90;;;;;;5029843;28;19913;-62
2024/03/29 06:29:35;;;;;;;;;;;5.60;99.90;;;;;;5037754;28;19925;-61
2024/03/29 06:32:00;;;;;;;;;;;5.60;99.90;;;;;;5029887;28;19917;-60
2024/03/29 06:34:26;;;;;;;;;;;5.60;99.90;;;;;;5038103;28;19984;-58
2024/03/29 06:36:51;;;;;;;;;;;5.70;99.90;;;;;;5029720;28;19923;-60
2024/03/29 06:39:17;;;;;;;;;;;5.70;99.90;;;;;;5037343;28;20342;-61
2024/03/29 06:41:42;;;;;;;;;;;5.70;99.90;;;;;;5030081;28;19955;-62
2024/03/29 06:44:08;;;;;;;;;;;5.80;99.90;;;;;;5029566;28;19909;-62
2024/03/29 06:46:34;;;;;;;;;;;5.80;99.90;;;;;;5041896;28;19927;-61
2024/03/29 06:48:59;;;;;;;;;;;5.90;99.90;;;;;;5031491;28;19951;-60
2024/03/29 06:51:25;;;;;;;;;;;6.00;99.90;;;;;;5029249;28;20377;-61
2024/03/29 06:53:51;;;;;;;;;;;6.10;99.90;;;;;;5029970;28;20396;-60
2024/03/29 06:56:17;;;;;;;;;;;6.10;99.90;;;;;;5037484;28;19943;-61
2024/03/29 06:58:42;;;;;;;;;;;6.20;99.90;;;;;;5034236;28;19913;-62
2024/03/29 07:01:08;;;;;;;;;;;6.20;99.90;;;;;;5032343;28;19922;-61
2024/03/29 07:03:33;;;;;;;;;;;6.30;99.90;;;;;;5037231;28;20410;-61
2024/03/29 07:05:59;;;;;;;;;;;6.30;99.90;;;;;;5044943;28;19920;-62
2024/03/29 07:08:24;;;;;;;;;;;6.30;99.90;;;;;;5012070;28;19922;-62
2024/03/29 07:11:02;;;;;;;;;;;6.40;99.90;;;;;;5017152;28;19947;-61
2024/03/29 07:13:29;;;;;;;;;;;6.40;99.90;;;;;;5033955;28;19917;-61
2024/03/29 07:15:55;;;;;;;;;;;6.50;99.90;;;;;;5033197;28;19917;-60
2024/03/29 07:18:21;;;;;;;;;;;6.50;99.90;;;;;;5045270;28;19924;-61
2024/03/29 07:20:46;;;;;;;;;;;6.50;99.90;;;;;;5028799;28;19917;-61
2024/03/29 07:23:12;;;;;;;;;;;6.50;99.90;;;;;;5033027;28;19909;-61
2024/03/29 07:25:38;;;;;;;;;;;6.50;99.90;;;;;;5036095;28;19913;-61
2024/03/29 07:28:03;;;;;;;;;;;6.60;99.90;;;;;;5029002;28;20407;-62
2024/03/29 07:30:29;;;;;;;;;;;6.60;99.90;;;;;;5028406;28;20030;-59
2024/03/29 07:32:54;;;;;;;;;;;6.70;99.90;;;;;;5029023;28;20317;-59
2024/03/29 07:35:20;;;;;;;;;;;6.70;99.90;;;;;;5043689;28;19917;-61
2024/03/29 07:37:47;;;;;;;;;;;6.80;99.90;;;;;;5037036;28;19915;-61
2024/03/29 07:40:13;;;;;;;;;;;6.80;99.90;;;;;;5045130;28;19947;-61
2024/03/29 07:42:38;;;;;;;;;;;6.90;99.90;;;;;;5028981;28;19952;-61
2024/03/29 07:45:04;;;;;;;;;;;7.00;99.90;;;;;;5037053;28;19933;-62
2024/03/29 07:47:29;;;;;;;;;;;7.00;99.90;;;;;;5031991;28;20391;-59
2024/03/29 07:49:55;;;;;;;;;;;7.10;99.90;;;;;;5041644;28;19963;-59
2024/03/29 07:52:21;;;;;;;;;;;7.20;99.90;;;;;;5028757;28;20324;-59
2024/03/29 07:54:47;;;;;;;;;;;7.20;99.90;;;;;;5028946;28;19918;-62
2024/03/29 07:57:14;;;;;;;;;;;7.30;99.90;;;;;;5028133;28;19932;-61
2024/03/29 07:59:40;;;;;;;;;;;7.30;99.90;;;;;;5028317;28;19967;-61
2024/03/29 08:02:06;;;;;;;;;;;7.40;99.90;;;;;;5010853;28;19952;-59
2024/03/29 08:04:31;;;;;;;;;;;7.60;99.90;;;;;;5028686;28;19924;-61
2024/03/29 08:06:57;;;;;;;;;;;7.60;99.90;;;;;;5036519;28;19920;-60
2024/03/29 08:09:22;;;;;;;;;;;7.70;99.90;;;;;;5028496;28;19917;-60
2024/03/29 08:11:48;;;;;;;;;;;7.80;99.90;;;;;;5028665;28;20230;-61
2024/03/29 08:14:13;;;;;;;;;;;7.80;99.90;;;;;;5045019;28;19983;-61
2024/03/29 08:16:39;;;;;;;;;;;7.70;99.90;;;;;;5034249;28;20242;-59
2024/03/29 08:19:04;;;;;;;;;;;7.70;99.90;;;;;;5036433;28;19967;-60
2024/03/29 08:21:30;;;;;;;;;;;7.80;99.90;;;;;;5032186;28;20229;-61
2024/03/29 08:23:56;;;;;;;;;;;7.80;99.90;;;;;;5035851;28;20062;-61
2024/03/29 08:26:22;;;;;;;;;;;7.80;99.90;;;;;;5040082;28;19924;-61
2024/03/29 08:28:47;;;;;;;;;;;7.90;99.90;;;;;;5031699;28;19913;-61
2024/03/29 08:31:13;;;;;;;;;;;7.90;99.90;;;;;;5032208;28;20371;-60
2024/03/29 08:33:39;;;;;;;;;;;8.00;99.90;;;;;;5032068;28;20467;-59
2024/03/29 08:36:08;;;;;;;;;;;8.10;99.90;;;;;;5031951;28;19927;-58
2024/03/29 08:38:34;;;;;;;;;;;8.10;99.90;;;;;;5031422;28;19995;-61
2024/03/29 08:40:59;;;;;;;;;;;8.20;99.90;;;;;;5032500;28;20063;-61
2024/03/29 08:43:25;;;;;;;;;;;8.30;99.90;;;;;;5031797;28;19960;-53
2024/03/29 08:45:50;;;;;;;;;;;8.40;99.90;;;;;;5031647;28;20000;-57
2024/03/29 08:48:16;;;;;;;;;;;8.40;99.90;;;;;;5031939;28;19960;-57
2024/03/29 08:50:41;;;;;;;;;;;8.50;99.90;;;;;;5036134;28;20288;-58
2024/03/29 08:53:07;;;;;;;;;;;8.50;99.90;;;;;;5042882;28;19956;-61
2024/03/29 08:55:33;;;;;;;;;;;8.60;99.90;;;;;;5031662;28;19940;-55
2024/03/29 08:57:59;;;;;;;;;;;8.70;99.90;;;;;;5031770;28;19960;-56
2024/03/29 09:00:25;;;;;;;;;;;8.60;99.90;;;;;;5047619;28;19913;-55
2024/03/29 09:02:51;;;;;;;;;;;8.60;99.90;;;;;;5031593;28;20304;-57
2024/03/29 09:05:16;;;;;;;;;;;8.60;99.90;;;;;;5040041;28;19938;-60
2024/03/29 09:07:42;;;;;;;;;;;8.60;99.90;;;;;;5039428;28;19929;-59
2024/03/29 09:10:07;;;;;;;;;;;8.60;99.90;;;;;;5031412;28;19913;-56
2024/03/29 09:12:33;;;;;;;;;;;8.60;99.90;;;;;;5031435;28;19924;-54
2024/03/29 09:14:58;;;;;;;;;;;8.60;99.90;;;;;;5031261;28;19932;-55
2024/03/29 09:17:24;;;;;;;;;;;8.70;99.90;;;;;;5031206;28;19928;-53
2024/03/29 09:19:51;;;;;;;;;;;8.70;99.90;;;;;;5030943;28;19995;-53
2024/03/29 09:22:17;;;;;;;;;;;8.80;99.90;;;;;;5031042;28;19913;-53
2024/03/29 09:24:43;;;;;;;;;;;8.80;99.90;;;;;;5039618;28;20011;-58
2024/03/29 09:27:08;;;;;;;;;;;9.00;99.90;;;;;;5030765;28;19955;-55
2024/03/29 09:29:34;;;;;;;;;;;9.00;99.90;;;;;;5029163;28;19925;-54
2024/03/29 09:32:01;;;;;;;;;;;9.00;99.90;;;;;;5031391;28;20414;-53
2024/03/29 09:34:27;;;;;;;;;;;9.00;99.90;;;;;;5046033;28;19952;-57
2024/03/29 09:36:53;;;;;;;;;;;9.20;99.90;;;;;;5030943;28;19972;-56
2024/03/29 09:39:18;;;;;;;;;;;9.30;99.90;;;;;;5046794;28;19920;-57
2024/03/29 09:41:45;;;;;;;;;;;9.40;99.90;;;;;;5026315;28;19921;-54
2024/03/29 09:44:11;;;;;;;;;;;9.40;99.90;;;;;;5042365;28;19919;-58
2024/03/29 09:46:39;;;;;;;;;;;9.40;99.90;;;;;;5042647;28;20008;-57
2024/03/29 09:49:06;;;;;;;;;;;9.40;99.90;;;;;;5034014;28;19913;-58
2024/03/29 09:51:32;;;;;;;;;;;9.30;99.90;;;;;;5022531;28;19971;-56
2024/03/29 09:53:59;;;;;;;;;;;9.30;99.90;;;;;;5038760;28;19913;-57
2024/03/29 09:56:25;;;;;;;;;;;9.30;99.90;;;;;;5047072;28;20272;-57
2024/03/29 09:58:52;;;;;;;;;;;9.30;99.90;;;;;;5029413;28;20412;-58
2024/03/29 10:01:18;;;;;;;;;;;9.40;99.90;;;;;;5040197;28;20008;-56
2024/03/29 10:03:44;;;;;;;;;;;9.50;99.90;;;;;;5036928;28;19913;-60
2024/03/29 10:06:12;;;;;;;;;;;9.60;99.90;;;;;;5030175;28;19991;-57
2024/03/29 10:08:38;;;;;;;;;;;9.60;99.90;;;;;;5029810;28;19909;-56
2024/03/29 10:11:03;;;;;;;;;;;9.50;99.90;;;;;;5030677;28;19927;-54
2024/03/29 10:13:29;;;;;;;;;;;9.40;99.90;;;;;;5038578;28;19987;-56
2024/03/29 10:15:55;;;;;;;;;;;9.30;99.90;;;;;;5036469;28;20403;-55
2024/03/29 10:18:25;;;;;;;;;;;9.40;99.90;;;;;;5039624;28;20446;-52
2024/03/29 10:21:01;;;;;;;;;;;9.50;99.90;;;;;;5037802;28;19913;-56
2024/03/29 10:23:27;;;;;;;;;;;9.50;99.90;;;;;;5038270;28;20352;-52
2024/03/29 10:25:52;;;;;;;;;;;9.60;99.90;;;;;;5036215;28;19916;-52
2024/03/29 10:28:21;;;;;;;;;;;9.70;99.90;;;;;;5033228;28;19921;-56
2024/03/29 10:30:47;;;;;;;;;;;9.70;99.90;;;;;;5035749;28;19932;-55
2024/03/29 10:33:13;;;;;;;;;;;9.70;99.90;;;;;;5030674;28;19913;-53
2024/03/29 10:35:41;;;;;;;;;;;9.80;99.90;;;;;;5041067;28;19924;-53
2024/03/29 10:38:07;;;;;;;;;;;9.70;99.90;;;;;;5041339;28;19924;-55
2024/03/29 10:40:32;;;;;;;;;;;9.70;99.90;;;;;;5032880;28;19913;-53
2024/03/29 10:42:58;;;;;;;;;;;9.60;99.90;;;;;;5034233;28;20342;-56
2024/03/29 10:45:25;;;;;;;;;;;9.50;99.90;;;;;;5028505;28;19924;-58
2024/03/29 10:47:52;;;;;;;;;;;9.60;99.90;;;;;;5028954;28;19912;-57
2024/03/29 10:50:19;;;;;;;;;;;9.50;99.90;;;;;;5028613;28;20262;-58
2024/03/29 10:52:45;;;;;;;;;;;9.50;99.90;;;;;;5029806;28;19937;-58
2024/03/29 10:55:11;;;;;;;;;;;9.50;99.90;;;;;;5038022;28;20036;-57
2024/03/29 10:57:40;;;;;;;;;;;9.50;99.90;;;;;;5031108;28;20019;-57
2024/03/29 11:00:18;;;;;;;;;;;9.60;99.90;;;;;;5032589;28;19928;-58
2024/03/29 11:03:05;;;;;;;;;;;9.60;99.90;;;;;;5022784;28;20003;-54
2024/03/29 11:05:32;;;;;;;;;;;9.70;99.90;;;;;;5037392;28;19913;-56
2024/03/29 11:07:58;;;;;;;;;;;9.80;99.90;;;;;;5037473;28;20289;-52
2024/03/29 11:10:39;;;;;;;;;;;9.80;99.90;;;;;;5028711;28;20479;-57
2024/03/29 11:13:14;;;;;;;;;;;9.80;99.90;;;;;;5029124;28;20369;-54
2024/03/29 11:15:40;;;;;;;;;;;10.00;99.90;;;;;;5021900;28;19925;-57
2024/03/29 11:18:07;;;;;;;;;;;10.10;99.90;;;;;;5028985;28;20435;-56
2024/03/29 11:20:40;;;;;;;;;;;10.20;99.90;;;;;;5036397;28;19920;-55
2024/03/29 11:23:10;;;;;;;;;;;10.30;99.90;;;;;;5037223;28;19935;-57
2024/03/29 11:25:40;;;;;;;;;;;10.30;99.90;;;;;;5029717;28;19940;-57
2024/03/29 11:28:08;;;;;;;;;;;10.40;99.90;;;;;;5037220;28;19947;-53
2024/03/29 11:30:39;;;;;;;;;;;10.50;99.90;;;;;;5036649;28;19913;-56
2024/03/29 11:33:05;;;;;;;;;;;10.60;99.90;;;;;;5037148;28;19920;-54
2024/03/29 11:35:32;;;;;;;;;;;10.70;99.90;;;;;;5037193;28;19917;-56
2024/03/29 11:38:01;;;;;;;;;;;10.90;99.90;;;;;;5036898;28;20203;-52
2024/03/29 11:40:30;;;;;;;;;;;11.00;99.90;;;;;;5036327;28;20634;-56
2024/03/29 11:42:55;;;;;;;;;;;11.00;99.90;;;;;;5028914;28;19913;-56
2024/03/29 11:45:21;;;;;;;;;;;11.10;99.90;;;;;;5030457;28;20313;-55
2024/03/29 11:47:47;;;;;;;;;;;11.10;99.90;;;;;;5039447;28;20368;-55
2024/03/29 11:50:13;;;;;;;;;;;10.90;99.90;;;;;;5031137;28;19914;-56
2024/03/29 11:52:39;;;;;;;;;;;10.90;99.90;;;;;;5028838;28;19921;-57
2024/03/29 11:55:05;;;;;;;;;;;10.80;99.90;;;;;;5028720;28;20399;-56
2024/03/29 11:57:31;;;;;;;;;;;10.70;99.90;;;;;;5028754;28;19913;-55
2024/03/29 11:59:56;;;;;;;;;;;10.60;99.90;;;;;;5032178;28;19917;-53
2024/03/29 12:02:22;;;;;;;;;;;10.60;99.90;;;;;;5032311;28;20021;-52
2024/03/29 12:04:51;;;;;;;;;;;10.60;99.90;;;;;;5033067;28;19913;-52
2024/03/29 12:07:16;;;;;;;;;;;10.60;99.90;;;;;;5033888;28;19927;-55
2024/03/29 12:09:42;;;;;;;;;;;10.40;99.90;;;;;;5043833;28;19967;-54
2024/03/29 12:12:09;;;;;;;;;;;10.50;99.90;;;;;;5043570;28;19959;-53
2024/03/29 12:14:37;;;;;;;;;;;10.40;99.90;;;;;;5032480;28;19924;-55
2024/03/29 12:17:11;;;;;;;;;;;10.40;99.90;;;;;;5039692;28;19917;-55
2024/03/29 12:19:39;;;;;;;;;;;10.30;99.90;;;;;;5032282;28;19919;-55
2024/03/29 12:22:04;;;;;;;;;;;10.30;99.90;;;;;;5032328;28;20412;-55
2024/03/29 12:24:30;;;;;;;;;;;10.30;99.90;;;;;;5040386;28;19917;-52
2024/03/29 12:26:56;;;;;;;;;;;10.30;99.90;;;;;;5032164;28;19924;-55
2024/03/29 12:29:21;;;;;;;;;;;10.30;99.90;;;;;;5031469;28;20056;-56
2024/03/29 12:31:56;;;;;;;;;;;10.30;99.90;;;;;;5037511;28;19913;-57
2024/03/29 12:34:22;;;;;;;;;;;10.40;99.90;;;;;;5033541;28;19917;-60
2024/03/29 12:36:47;;;;;;;;;;;10.40;99.90;;;;;;5040317;28;20346;-58
2024/03/29 12:39:13;;;;;;;;;;;10.50;99.90;;;;;;5031224;28;19932;-53
2024/03/29 12:41:38;;;;;;;;;;;10.60;99.90;;;;;;5035864;28;19913;-57
2024/03/29 12:44:04;;;;;;;;;;;10.70;99.90;;;;;;5043403;28;19917;-57
2024/03/29 12:46:29;;;;;;;;;;;10.60;99.90;;;;;;5040316;28;19925;-55
2024/03/29 12:48:59;;;;;;;;;;;10.70;99.90;;;;;;5031064;28;19917;-55
2024/03/29 12:51:25;;;;;;;;;;;10.70;99.90;;;;;;5048173;28;19920;-55
2024/03/29 12:53:50;;;;;;;;;;;10.70;99.90;;;;;;5039783;28;19921;-58
2024/03/29 12:56:16;;;;;;;;;;;10.80;99.90;;;;;;5031261;28;19921;-56
2024/03/29 12:58:41;;;;;;;;;;;10.90;99.90;;;;;;5030987;28;19917;-56
2024/03/29 13:01:07;;;;;;;;;;;10.70;99.90;;;;;;5031520;28;19917;-55
2024/03/29 13:03:32;;;;;;;;;;;10.50;99.90;;;;;;5032041;28;19966;-56
2024/03/29 13:05:58;;;;;;;;;;;10.50;99.90;;;;;;5030640;28;19924;-56
2024/03/29 13:08:23;;;;;;;;;;;10.60;99.90;;;;;;5031303;28;19949;-51
2024/03/29 13:10:49;;;;;;;;;;;10.60;99.90;;;;;;5029108;28;19930;-53
2024/03/29 13:13:15;;;;;;;;;;;10.60;99.90;;;;;;5028760;28;19917;-55
2024/03/29 13:15:42;;;;;;;;;;;10.70;99.90;;;;;;5030241;28;19921;-55
2024/03/29 13:18:08;;;;;;;;;;;10.70;99.90;;;;;;5036620;28;19921;-51
2024/03/29 13:20:40;;;;;;;;;;;10.70;99.90;;;;;;5046825;28;19923;-52
2024/03/29 13:23:05;;;;;;;;;;;10.70;99.90;;;;;;5047320;28;19908;-53
2024/03/29 13:25:32;;;;;;;;;;;10.80;99.90;;;;;;5031195;28;19983;-53
2024/03/29 13:27:57;;;;;;;;;;;10.90;99.90;;;;;;5039097;28;19913;-51
2024/03/29 13:30:24;;;;;;;;;;;11.00;99.90;;;;;;5032691;28;20404;-52
2024/03/29 13:32:50;;;;;;;;;;;11.00;99.90;;;;;;5045037;28;19909;-54
2024/03/29 13:35:15;;;;;;;;;;;10.90;99.90;;;;;;5030806;28;20302;-54
2024/03/29 13:37:43;;;;;;;;;;;10.90;99.90;;;;;;5030566;28;20382;-55
2024/03/29 13:40:09;;;;;;;;;;;10.90;99.90;;;;;;5030269;28;19909;-52
2024/03/29 13:42:35;;;;;;;;;;;10.90;99.90;;;;;;5030519;28;20048;-55
2024/03/29 13:45:01;;;;;;;;;;;10.90;99.90;;;;;;5037241;28;19996;-55
2024/03/29 13:47:27;;;;;;;;;;;10.90;99.90;;;;;;5041812;28;20343;-53
2024/03/29 13:49:54;;;;;;;;;;;10.80;99.90;;;;;;5041331;28;19921;-52
2024/03/29 13:52:20;;;;;;;;;;;10.80;99.90;;;;;;5032499;28;19917;-56
2024/03/29 13:54:46;;;;;;;;;;;10.90;99.90;;;;;;5030473;28;19917;-54
2024/03/29 13:57:15;;;;;;;;;;;11.00;99.90;;;;;;5029991;28;20388;-53
2024/03/29 13:59:43;;;;;;;;;;;10.70;99.90;;;;;;5029804;28;20288;-52
2024/03/29 14:02:09;;;;;;;;;;;10.70;99.90;;;;;;5026797;28;19921;-53
2024/03/29 14:04:34;;;;;;;;;;;10.70;99.90;;;;;;5030391;28;19936;-51
2024/03/29 14:07:01;;;;;;;;;;;10.70;99.90;;;;;;5030416;28;19917;-52
2024/03/29 14:09:27;;;;;;;;;;;10.60;99.90;;;;;;5011468;28;19917;-56
2024/03/29 14:11:52;;;;;;;;;;;10.60;99.90;;;;;;5026062;28;20031;-53
2024/03/29 14:14:18;;;;;;;;;;;10.60;99.90;;;;;;5020865;28;20293;-52
2024/03/29 14:16:43;;;;;;;;;;;10.70;99.90;;;;;;5029607;28;19924;-52
2024/03/29 14:19:09;;;;;;;;;;;10.70;99.90;;;;;;5032878;28;19923;-54
2024/03/29 14:21:34;;;;;;;;;;;10.70;99.90;;;;;;5037342;28;19929;-53
2024/03/29 14:24:00;;;;;;;;;;;10.80;99.90;;;;;;5036582;28;19924;-54
2024/03/29 14:26:25;;;;;;;;;;;10.80;99.90;;;;;;5031255;28;19920;-54